Time;durP1;ratioP1;P1;durP2;ratioP2;P2;SDS_P1;SDS_P2;PMS_P1;PMS_P2;Temp;Humidity;BMP_temperature;BMP_pressure;BME280_temperature;BME280_humidity;BME280_pressure;Samples;Min_cycle;Max_cycle;Signal;HPM_P1;HPM_P2
2022/04/14 00:00:15;;;;;;;10.95;4.45;;;;;;;;;;5033438;28;20048;-64
2022/04/14 00:02:41;;;;;;;10.57;4.40;;;;;;;;;;5033586;28;20547;-64
2022/04/14 00:05:07;;;;;;;7.07;3.67;;;;;;;;;;5033156;28;20443;-65
2022/04/14 00:07:34;;;;;;;9.50;3.90;;;;;;;;;;5033417;28;20017;-66
2022/04/14 00:10:00;;;;;;;9.18;3.85;;;;;;;;;;5033426;28;20025;-65
2022/04/14 00:12:26;;;;;;;10.15;4.43;;;;;;;;;;5033086;28;20096;-65
2022/04/14 00:14:52;;;;;;;9.02;3.90;;;;;;;;;;5033042;28;20029;-64
2022/04/14 00:17:18;;;;;;;6.72;3.70;;;;;;;;;;5032502;28;20469;-64
2022/04/14 00:19:44;;;;;;;9.45;3.90;;;;;;;;;;5033106;28;20480;-67
2022/04/14 00:22:10;;;;;;;7.68;3.72;;;;;;;;;;5032928;28;20092;-65
2022/04/14 00:24:36;;;;;;;6.70;3.50;;;;;;;;;;5032755;28;20025;-66
2022/04/14 00:27:03;;;;;;;8.10;4.00;;;;;;;;;;5031531;28;20397;-65
2022/04/14 00:29:29;;;;;;;8.50;3.33;;;;;;;;;;5032664;28;20384;-65
2022/04/14 00:31:55;;;;;;;7.25;3.65;;;;;;;;;;5032621;28;20025;-65
2022/04/14 00:34:22;;;;;;;8.68;3.80;;;;;;;;;;5032727;28;20037;-65
2022/04/14 00:36:48;;;;;;;8.45;3.65;;;;;;;;;;5031758;28;20032;-64
2022/04/14 00:39:14;;;;;;;6.32;3.17;;;;;;;;;;5032573;28;20143;-71
2022/04/14 00:41:40;;;;;;;7.47;3.10;;;;;;;;;;5032708;28;20153;-64
2022/04/14 00:44:06;;;;;;;7.95;3.60;;;;;;;;;;5032623;28;20029;-64
2022/04/14 00:46:32;;;;;;;8.80;4.00;;;;;;;;;;5032690;28;20049;-64
2022/04/14 00:48:58;;;;;;;7.47;3.47;;;;;;;;;;5032405;28;20029;-65
2022/04/14 00:51:25;;;;;;;7.47;3.53;;;;;;;;;;5032507;28;20426;-64
2022/04/14 00:53:51;;;;;;;5.82;3.30;;;;;;;;;;5032385;28;20532;-64
2022/04/14 00:56:17;;;;;;;7.90;3.75;;;;;;;;;;5032187;28;20825;-64
2022/04/14 00:58:43;;;;;;;10.73;4.50;;;;;;;;;;5032103;28;20038;-64
2022/04/14 01:01:12;;;;;;;7.43;3.95;;;;;;;;;;5032382;28;20029;-64
2022/04/14 01:03:38;;;;;;;11.13;4.32;;;;;;;;;;5032768;28;20362;-64
2022/04/14 01:06:04;;;;;;;9.70;3.95;;;;;;;;;;5032371;28;20117;-64
2022/04/14 01:08:32;;;;;;;7.28;3.45;;;;;;;;;;5031951;28;20071;-64
2022/04/14 01:10:59;;;;;;;8.15;3.47;;;;;;;;;;5032067;28;20104;-65
2022/04/14 01:13:25;;;;;;;8.80;3.50;;;;;;;;;;5032350;28;20083;-64
2022/04/14 01:15:56;;;;;;;9.07;4.10;;;;;;;;;;5031805;28;20128;-63
2022/04/14 01:18:22;;;;;;;6.88;3.72;;;;;;;;;;5032034;28;20022;-64
2022/04/14 01:20:48;;;;;;;8.27;3.88;;;;;;;;;;5031742;28;20068;-64
2022/04/14 01:23:17;;;;;;;10.27;4.05;;;;;;;;;;5032018;28;20030;-64
2022/04/14 01:25:43;;;;;;;8.40;4.10;;;;;;;;;;5031638;28;20895;-64
2022/04/14 01:28:09;;;;;;;7.15;3.90;;;;;;;;;;5032033;28;20354;-64
2022/04/14 01:30:36;;;;;;;9.85;4.32;;;;;;;;;;5032015;28;20107;-67
2022/04/14 01:33:02;;;;;;;10.38;4.43;;;;;;;;;;5031895;28;20025;-63
2022/04/14 01:35:28;;;;;;;9.50;3.55;;;;;;;;;;5031487;28;20036;-66
2022/04/14 01:37:54;;;;;;;8.70;3.95;;;;;;;;;;5031518;28;20420;-65
2022/04/14 01:40:21;;;;;;;8.20;3.90;;;;;;;;;;5031352;28;20087;-65
2022/04/14 01:42:47;;;;;;;6.70;3.65;;;;;;;;;;5031410;28;20025;-64
2022/04/14 01:45:13;;;;;;;8.68;3.67;;;;;;;;;;5031329;28;20032;-64
2022/04/14 01:47:43;;;;;;;7.75;3.88;;;;;;;;;;5031148;28;20354;-65
2022/04/14 01:50:10;;;;;;;8.77;3.90;;;;;;;;;;5031494;28;20032;-64
2022/04/14 01:52:36;;;;;;;8.23;3.85;;;;;;;;;;5030946;28;20026;-64
2022/04/14 01:55:03;;;;;;;8.20;4.20;;;;;;;;;;5030951;28;20515;-65
2022/04/14 01:57:29;;;;;;;7.47;3.90;;;;;;;;;;5031251;28;20381;-64
2022/04/14 01:59:56;;;;;;;13.18;5.20;;;;;;;;;;5031077;28;20034;-63
2022/04/14 02:02:22;;;;;;;11.90;7.03;;;;;;;;;;5032526;28;20134;-67
2022/04/14 02:04:48;;;;;;;13.05;6.68;;;;;;;;;;5032873;28;20037;-64
2022/04/14 02:07:14;;;;;;;11.50;5.35;;;;;;;;;;5031242;28;20030;-65
2022/04/14 02:09:40;;;;;;;15.18;8.43;;;;;;;;;;5030834;28;20025;-65
2022/04/14 02:12:06;;;;;;;14.80;6.63;;;;;;;;;;5030767;28;20025;-65
2022/04/14 02:14:32;;;;;;;11.82;5.40;;;;;;;;;;5031019;28;20067;-65
2022/04/14 02:16:58;;;;;;;12.15;4.68;;;;;;;;;;5030793;28;20017;-64
2022/04/14 02:19:24;;;;;;;12.15;4.90;;;;;;;;;;5029610;28;20045;-64
2022/04/14 02:21:50;;;;;;;11.32;5.07;;;;;;;;;;5030692;28;20022;-64
2022/04/14 02:24:16;;;;;;;10.55;4.80;;;;;;;;;;5030652;28;20032;-66
2022/04/14 02:26:43;;;;;;;9.05;4.60;;;;;;;;;;5030664;28;20029;-65
2022/04/14 02:29:09;;;;;;;11.40;4.72;;;;;;;;;;5031093;28;20060;-64
2022/04/14 02:31:35;;;;;;;9.15;5.28;;;;;;;;;;5030906;28;20029;-63
2022/04/14 02:34:01;;;;;;;10.52;4.95;;;;;;;;;;5030712;28;20103;-64
2022/04/14 02:36:27;;;;;;;12.43;5.32;;;;;;;;;;5030688;28;20047;-66
2022/04/14 02:38:53;;;;;;;12.07;5.63;;;;;;;;;;5030633;28;20030;-64
2022/04/14 02:41:19;;;;;;;10.82;5.25;;;;;;;;;;5030671;28;20030;-64
2022/04/14 02:43:45;;;;;;;12.18;5.03;;;;;;;;;;5030718;28;20029;-65
2022/04/14 02:46:11;;;;;;;10.93;5.50;;;;;;;;;;5030620;28;20060;-66
2022/04/14 02:48:37;;;;;;;10.68;5.28;;;;;;;;;;5030549;28;20025;-64
2022/04/14 02:51:03;;;;;;;11.93;4.93;;;;;;;;;;5030741;28;20033;-66
2022/04/14 02:53:29;;;;;;;16.20;5.80;;;;;;;;;;5030552;28;20122;-65
2022/04/14 02:55:55;;;;;;;12.90;5.65;;;;;;;;;;5030320;28;20821;-64
2022/04/14 02:58:21;;;;;;;12.25;5.80;;;;;;;;;;5030195;28;20036;-64
2022/04/14 03:00:48;;;;;;;14.50;5.63;;;;;;;;;;5034009;28;20033;-68
2022/04/14 03:03:14;;;;;;;11.10;5.85;;;;;;;;;;5034141;28;20033;-65
2022/04/14 03:05:40;;;;;;;12.35;5.38;;;;;;;;;;5034357;28;20029;-64
2022/04/14 03:08:06;;;;;;;14.23;5.45;;;;;;;;;;5034242;28;20025;-64
2022/04/14 03:10:32;;;;;;;17.02;5.72;;;;;;;;;;5034360;28;20061;-64
2022/04/14 03:12:58;;;;;;;13.13;5.47;;;;;;;;;;5034228;28;20140;-65
2022/04/14 03:15:24;;;;;;;12.30;5.85;;;;;;;;;;5034225;28;20108;-65
2022/04/14 03:17:50;;;;;;;14.02;5.90;;;;;;;;;;5034089;28;20057;-63
2022/04/14 03:20:17;;;;;;;11.65;5.68;;;;;;;;;;5034302;28;20091;-64
2022/04/14 03:22:43;;;;;;;18.77;5.85;;;;;;;;;;5033986;28;20021;-69
2022/04/14 03:25:10;;;;;;;16.13;5.55;;;;;;;;;;5034124;28;20033;-69
2022/04/14 03:27:37;;;;;;;14.15;5.57;;;;;;;;;;5033906;28;20017;-64
2022/04/14 03:30:03;;;;;;;14.98;5.50;;;;;;;;;;5034296;28;20041;-63
2022/04/14 03:32:29;;;;;;;14.50;6.13;;;;;;;;;;5033930;28;20030;-64
2022/04/14 03:34:56;;;;;;;10.95;5.35;;;;;;;;;;5033955;28;20114;-63
2022/04/14 03:37:22;;;;;;;12.98;5.70;;;;;;;;;;5033928;28;20033;-63
2022/04/14 03:39:48;;;;;;;11.35;5.10;;;;;;;;;;5033687;28;20048;-68
2022/04/14 03:42:14;;;;;;;12.02;5.50;;;;;;;;;;5033715;28;20120;-64
2022/04/14 03:44:40;;;;;;;11.20;5.43;;;;;;;;;;5033916;28;20396;-64
2022/04/14 03:47:07;;;;;;;16.25;6.03;;;;;;;;;;5033996;28;20063;-67
2022/04/14 03:49:33;;;;;;;12.73;5.72;;;;;;;;;;5033816;28;20063;-64
2022/04/14 03:51:59;;;;;;;12.32;6.20;;;;;;;;;;5033625;28;20026;-64
2022/04/14 03:54:25;;;;;;;13.88;5.70;;;;;;;;;;5033589;28;20461;-65
2022/04/14 03:56:51;;;;;;;12.02;6.07;;;;;;;;;;5033415;28;20455;-63
2022/04/14 03:59:17;;;;;;;12.48;6.35;;;;;;;;;;5033526;28;20044;-64
2022/04/14 04:01:43;;;;;;;13.93;6.38;;;;;;;;;;5033534;28;20048;-64
2022/04/14 04:04:09;;;;;;;12.98;6.18;;;;;;;;;;5033501;28;20095;-64
2022/04/14 04:06:35;;;;;;;14.02;5.88;;;;;;;;;;5033580;28;20499;-64
2022/04/14 04:09:01;;;;;;;12.65;5.80;;;;;;;;;;5033098;28;20026;-64
2022/04/14 04:11:27;;;;;;;17.42;6.35;;;;;;;;;;5031687;28;20167;-65
2022/04/14 04:13:53;;;;;;;11.68;5.72;;;;;;;;;;5032885;28;20049;-67
2022/04/14 04:16:19;;;;;;;13.73;6.95;;;;;;;;;;5032965;28;20026;-64
2022/04/14 04:18:45;;;;;;;22.95;10.48;;;;;;;;;;5032912;28;20021;-68
2022/04/14 04:21:11;;;;;;;25.05;12.35;;;;;;;;;;5032939;28;20109;-63
2022/04/14 04:23:37;;;;;;;15.32;8.32;;;;;;;;;;5032963;28;20018;-64
2022/04/14 04:26:03;;;;;;;13.75;6.70;;;;;;;;;;5032677;28;20112;-65
2022/04/14 04:28:32;;;;;;;12.68;6.55;;;;;;;;;;5032662;28;20426;-65
2022/04/14 04:30:58;;;;;;;16.17;7.30;;;;;;;;;;5032707;28;20107;-64
2022/04/14 04:33:25;;;;;;;12.90;6.38;;;;;;;;;;5032841;28;20021;-64
2022/04/14 04:35:51;;;;;;;18.00;8.65;;;;;;;;;;5032711;28;20026;-65
2022/04/14 04:38:17;;;;;;;18.02;8.20;;;;;;;;;;5032829;28;20083;-65
2022/04/14 04:40:43;;;;;;;17.77;7.78;;;;;;;;;;5032564;28;20029;-67
2022/04/14 04:43:09;;;;;;;17.73;7.50;;;;;;;;;;5032625;28;20029;-64
2022/04/14 04:45:36;;;;;;;24.65;8.35;;;;;;;;;;5032655;28;20021;-69
2022/04/14 04:48:04;;;;;;;19.13;7.90;;;;;;;;;;5032467;28;20029;-64
2022/04/14 04:50:30;;;;;;;18.88;9.13;;;;;;;;;;5032745;28;20056;-64
2022/04/14 04:52:56;;;;;;;24.50;8.77;;;;;;;;;;5032096;28;20030;-64
2022/04/14 04:55:22;;;;;;;19.95;7.88;;;;;;;;;;5031959;28;20049;-65
2022/04/14 04:57:48;;;;;;;29.33;8.20;;;;;;;;;;5032377;28;20048;-64
2022/04/14 05:00:14;;;;;;;23.27;8.35;;;;;;;;;;5032378;28;20033;-67
2022/04/14 05:02:40;;;;;;;32.10;8.75;;;;;;;;;;5032157;28;20021;-65
2022/04/14 05:05:07;;;;;;;26.30;8.82;;;;;;;;;;5032284;28;20034;-67
2022/04/14 05:07:33;;;;;;;25.85;9.02;;;;;;;;;;5032183;28;20021;-65
2022/04/14 05:09:59;;;;;;;30.67;9.05;;;;;;;;;;5032196;28;20075;-65
2022/04/14 05:12:25;;;;;;;31.83;9.45;;;;;;;;;;5031987;28;20067;-65
2022/04/14 05:14:51;;;;;;;25.90;9.20;;;;;;;;;;5031997;28;20034;-65
2022/04/14 05:17:18;;;;;;;28.35;8.55;;;;;;;;;;5031818;28;20030;-63
2022/04/14 05:19:44;;;;;;;35.20;9.80;;;;;;;;;;5031814;28;20037;-66
2022/04/14 05:22:10;;;;;;;37.55;8.70;;;;;;;;;;5031573;28;20024;-65
2022/04/14 05:24:36;;;;;;;28.50;8.20;;;;;;;;;;5031303;28;20480;-64
2022/04/14 05:27:02;;;;;;;25.33;8.55;;;;;;;;;;5031842;28;20547;-65
2022/04/14 05:29:30;;;;;;;24.38;8.15;;;;;;;;;;5031354;28;20017;-65
2022/04/14 05:31:56;;;;;;;25.30;8.30;;;;;;;;;;5031354;28;20037;-64
2022/04/14 05:34:23;;;;;;;28.70;8.10;;;;;;;;;;5031320;28;20060;-64
2022/04/14 05:36:50;;;;;;;24.50;7.32;;;;;;;;;;5031299;28;20017;-65
2022/04/14 05:39:16;;;;;;;21.38;6.53;;;;;;;;;;5031137;28;20044;-69
2022/04/14 05:41:42;;;;;;;19.30;7.20;;;;;;;;;;5031344;28;20029;-68
2022/04/14 05:44:08;;;;;;;17.13;7.03;;;;;;;;;;5031228;28;20496;-68
2022/04/14 05:46:34;;;;;;;17.15;7.85;;;;;;;;;;5031062;28;20532;-69
2022/04/14 05:49:00;;;;;;;23.85;7.97;;;;;;;;;;5031015;28;20029;-69
2022/04/14 05:51:26;;;;;;;18.17;7.45;;;;;;;;;;5031243;28;20025;-68
2022/04/14 05:53:53;;;;;;;20.98;7.22;;;;;;;;;;5030973;28;20021;-70
2022/04/14 05:56:19;;;;;;;17.83;6.53;;;;;;;;;;5030862;28;20056;-67
2022/04/14 05:58:45;;;;;;;15.15;6.60;;;;;;;;;;5031112;28;20034;-67
2022/04/14 06:01:13;;;;;;;16.30;6.97;;;;;;;;;;5031453;28;20057;-67
2022/04/14 06:03:40;;;;;;;20.52;9.15;;;;;;;;;;5031184;28;20496;-69
2022/04/14 06:06:08;;;;;;;25.13;10.95;;;;;;;;;;5031119;28;20022;-68
2022/04/14 06:08:34;;;;;;;16.83;8.07;;;;;;;;;;5031081;28;20543;-70
2022/04/14 06:11:00;;;;;;;22.08;7.93;;;;;;;;;;5030498;28;20060;-69
2022/04/14 06:13:26;;;;;;;17.00;8.70;;;;;;;;;;5031099;28;20057;-70
2022/04/14 06:15:52;;;;;;;20.67;10.25;;;;;;;;;;5031192;28;20072;-67
2022/04/14 06:18:18;;;;;;;28.95;12.30;;;;;;;;;;5031094;28;20033;-70
2022/04/14 06:20:47;;;;;;;27.83;13.00;;;;;;;;;;5031001;28;20100;-71
2022/04/14 06:23:16;;;;;;;28.35;11.45;;;;;;;;;;5030447;28;20104;-70
2022/04/14 06:25:45;;;;;;;22.15;10.60;;;;;;;;;;5030731;28;20822;-69
2022/04/14 06:28:11;;;;;;;21.55;10.68;;;;;;;;;;5030430;28;20034;-71
2022/04/14 06:30:38;;;;;;;20.73;10.48;;;;;;;;;;5030225;28;20031;-71
2022/04/14 06:33:05;;;;;;;22.35;9.75;;;;;;;;;;5030013;28;20491;-65
2022/04/14 06:35:31;;;;;;;17.33;9.30;;;;;;;;;;5029769;28;20052;-66
2022/04/14 06:37:57;;;;;;;15.90;9.52;;;;;;;;;;5030357;28;20032;-66
2022/04/14 06:40:23;;;;;;;20.95;9.40;;;;;;;;;;5043179;28;20044;-62
2022/04/14 06:42:50;;;;;;;17.67;9.05;;;;;;;;;;5050423;28;20492;-64
2022/04/14 06:45:16;;;;;;;19.92;9.35;;;;;;;;;;5050353;28;20025;-61
2022/04/14 06:47:42;;;;;;;16.00;9.13;;;;;;;;;;5049948;28;20029;-65
2022/04/14 06:50:09;;;;;;;19.08;9.40;;;;;;;;;;5050457;28;20095;-64
2022/04/14 06:52:37;;;;;;;21.52;9.80;;;;;;;;;;5050293;28;20040;-64
2022/04/14 06:55:03;;;;;;;20.73;9.35;;;;;;;;;;5049386;28;20226;-67
2022/04/14 06:57:29;;;;;;;17.63;9.05;;;;;;;;;;5050411;28;20048;-66
2022/04/14 06:59:55;;;;;;;16.60;9.07;;;;;;;;;;5050181;28;20041;-67
2022/04/14 07:02:22;;;;;;;16.25;9.00;;;;;;;;;;5050217;28;20848;-64
2022/04/14 07:04:48;;;;;;;17.38;8.70;;;;;;;;;;5049711;28;20037;-64
2022/04/14 07:07:16;;;;;;;17.83;9.23;;;;;;;;;;5037916;28;20036;-65
2022/04/14 07:09:43;;;;;;;20.25;9.80;;;;;;;;;;5038741;28;20035;-64
2022/04/14 07:12:10;;;;;;;14.77;8.57;;;;;;;;;;5039750;28;20026;-63
2022/04/14 07:14:38;;;;;;;17.30;8.65;;;;;;;;;;5038141;28;20017;-67
2022/04/14 07:17:04;;;;;;;21.92;9.85;;;;;;;;;;5038946;28;20033;-67
2022/04/14 07:19:31;;;;;;;21.30;10.70;;;;;;;;;;5039884;28;20083;-63
2022/04/14 07:21:57;;;;;;;17.63;9.52;;;;;;;;;;5032366;28;20386;-64
2022/04/14 07:24:23;;;;;;;18.92;9.20;;;;;;;;;;5036851;28;20029;-64
2022/04/14 07:26:49;;;;;;;18.25;9.48;;;;;;;;;;5038114;28;20108;-66
2022/04/14 07:29:15;;;;;;;21.27;9.32;;;;;;;;;;5038290;28;20052;-64
2022/04/14 07:31:42;;;;;;;17.38;8.07;;;;;;;;;;5038925;28;20025;-63
2022/04/14 07:34:10;;;;;;;14.98;8.18;;;;;;;;;;5037752;28;20105;-63
2022/04/14 07:36:36;;;;;;;16.40;7.88;;;;;;;;;;5038126;28;20021;-64
2022/04/14 07:39:02;;;;;;;13.35;7.28;;;;;;;;;;5039488;28;20029;-66
2022/04/14 07:41:28;;;;;;;18.02;8.15;;;;;;;;;;5038464;28;20444;-67
2022/04/14 07:43:55;;;;;;;15.85;7.47;;;;;;;;;;5038606;28;20388;-67
2022/04/14 07:46:21;;;;;;;12.57;7.38;;;;;;;;;;5042153;28;20028;-63
2022/04/14 07:48:47;;;;;;;14.57;7.40;;;;;;;;;;5040274;28;20026;-64
2022/04/14 07:51:13;;;;;;;13.93;6.22;;;;;;;;;;5041454;28;20032;-70
2022/04/14 07:53:39;;;;;;;16.75;7.40;;;;;;;;;;5039939;28;20021;-64
2022/04/14 07:56:05;;;;;;;13.68;6.25;;;;;;;;;;5032406;28;20049;-64
2022/04/14 07:58:33;;;;;;;12.20;6.57;;;;;;;;;;5033188;28;20022;-64
2022/04/14 08:00:59;;;;;;;14.65;7.15;;;;;;;;;;5033381;28;20099;-65
2022/04/14 08:03:25;;;;;;;13.02;7.18;;;;;;;;;;5032225;28;20030;-66
2022/04/14 08:05:51;;;;;;;13.35;6.80;;;;;;;;;;5032800;28;20029;-65
2022/04/14 08:08:18;;;;;;;13.85;6.88;;;;;;;;;;5039653;28;20029;-63
2022/04/14 08:10:46;;;;;;;16.10;7.22;;;;;;;;;;5040827;28;20408;-67
2022/04/14 08:13:12;;;;;;;13.80;6.97;;;;;;;;;;5041551;28;20017;-67
2022/04/14 08:15:39;;;;;;;14.40;6.35;;;;;;;;;;5042112;28;20052;-66
2022/04/14 08:18:08;;;;;;;12.93;6.53;;;;;;;;;;5038995;28;20025;-67
2022/04/14 08:20:35;;;;;;;12.77;7.05;;;;;;;;;;5041167;28;20451;-63
2022/04/14 08:23:01;;;;;;;13.75;6.78;;;;;;;;;;5037488;28;20100;-67
2022/04/14 08:25:27;;;;;;;14.35;6.78;;;;;;;;;;5031642;28;20442;-64
2022/04/14 08:27:54;;;;;;;12.40;7.20;;;;;;;;;;5031780;28;20053;-63
2022/04/14 08:30:21;;;;;;;12.55;7.50;;;;;;;;;;5032344;28;20060;-67
2022/04/14 08:32:47;;;;;;;13.48;6.88;;;;;;;;;;5040014;28;20028;-67
2022/04/14 08:35:14;;;;;;;15.60;6.75;;;;;;;;;;5041492;28;20035;-62
2022/04/14 08:37:41;;;;;;;11.02;6.40;;;;;;;;;;5042138;28;20671;-65
2022/04/14 08:40:08;;;;;;;10.40;5.75;;;;;;;;;;5044987;28;20032;-65
2022/04/14 08:42:39;;;;;;;12.95;6.38;;;;;;;;;;5050985;28;20021;-67
2022/04/14 08:45:06;;;;;;;11.00;5.65;;;;;;;;;;5051695;28;20101;-65
2022/04/14 08:47:34;;;;;;;10.75;5.88;;;;;;;;;;5052119;28;20025;-67
2022/04/14 08:50:00;;;;;;;13.07;6.38;;;;;;;;;;5052049;28;20029;-65
2022/04/14 08:52:27;;;;;;;9.32;5.38;;;;;;;;;;5051142;28;20522;-64
2022/04/14 08:54:56;;;;;;;10.30;5.18;;;;;;;;;;5051227;28;20029;-67
2022/04/14 08:57:24;;;;;;;8.70;4.75;;;;;;;;;;5050826;28;20384;-65
2022/04/14 08:59:50;;;;;;;10.52;5.43;;;;;;;;;;5052243;28;20041;-69
2022/04/14 09:02:23;;;;;;;12.63;6.30;;;;;;;;;;5052388;28;20487;-69
2022/04/14 09:04:49;;;;;;;10.13;5.70;;;;;;;;;;5051688;28;20140;-63
2022/04/14 09:07:16;;;;;;;10.38;5.03;;;;;;;;;;5052126;28;20028;-64
2022/04/14 09:09:42;;;;;;;9.95;4.57;;;;;;;;;;5051971;28;20029;-65
2022/04/14 09:12:10;;;;;;;9.73;5.22;;;;;;;;;;5050826;28;20047;-63
2022/04/14 09:14:37;;;;;;;9.52;4.57;;;;;;;;;;5051242;28;20041;-64
2022/04/14 09:17:03;;;;;;;9.77;4.68;;;;;;;;;;5051265;28;20510;-63
2022/04/14 09:19:33;;;;;;;11.20;5.38;;;;;;;;;;5051781;28;20041;-63
2022/04/14 09:21:59;;;;;;;6.55;4.30;;;;;;;;;;5051588;28;20036;-66
2022/04/14 09:24:43;;;;;;;7.95;4.60;;;;;;;;;;5051392;28;20476;-62
2022/04/14 09:27:09;;;;;;;9.98;5.20;;;;;;;;;;5051292;28;20107;-67
2022/04/14 09:29:36;;;;;;;13.38;4.88;;;;;;;;;;5050529;28;20025;-63
2022/04/14 09:32:02;;;;;;;6.50;3.72;;;;;;;;;;5050939;28;20475;-65
2022/04/14 09:34:42;;;;;;;9.75;3.97;;;;;;;;;;5051652;28;20036;-62
2022/04/14 09:37:08;;;;;;;7.22;4.03;;;;;;;;;;5051177;28;20473;-63
2022/04/14 09:39:50;;;;;;;8.85;3.97;;;;;;;;;;5051364;28;20476;-63
2022/04/14 09:42:16;;;;;;;6.63;3.60;;;;;;;;;;5051324;28;20033;-68
2022/04/14 09:44:43;;;;;;;8.00;4.47;;;;;;;;;;5051062;28;20028;-64
2022/04/14 09:47:09;;;;;;;9.60;5.07;;;;;;;;;;5050983;28;20033;-64
2022/04/14 09:49:41;;;;;;;9.98;4.57;;;;;;;;;;5051166;28;20033;-70
2022/04/14 09:52:07;;;;;;;9.43;3.08;;;;;;;;;;5050726;28;20476;-63
2022/04/14 09:54:34;;;;;;;5.88;3.10;;;;;;;;;;5050822;28;20037;-63
2022/04/14 09:57:00;;;;;;;7.50;3.17;;;;;;;;;;5050748;28;20052;-68
2022/04/14 09:59:28;;;;;;;8.32;2.90;;;;;;;;;;5050830;28;20377;-64
2022/04/14 10:02:13;;;;;;;6.28;3.70;;;;;;;;;;5050864;28;20060;-63
2022/04/14 10:04:40;;;;;;;5.70;3.78;;;;;;;;;;5050839;28;20032;-64
2022/04/14 10:07:16;;;;;;;6.72;3.30;;;;;;;;;;5050876;28;20102;-69
2022/04/14 10:09:43;;;;;;;7.07;3.67;;;;;;;;;;5050657;28;20067;-62
2022/04/14 10:12:18;;;;;;;5.57;3.05;;;;;;;;;;5050823;28;20108;-69
2022/04/14 10:14:44;;;;;;;6.38;3.45;;;;;;;;;;5050668;28;20083;-69
2022/04/14 10:17:11;;;;;;;8.35;3.72;;;;;;;;;;5046907;28;20029;-68
2022/04/14 10:19:37;;;;;;;13.57;6.47;;;;;;;;;;5039190;28;20037;-63
2022/04/14 10:22:05;;;;;;;11.82;5.43;;;;;;;;;;5039693;28;20366;-62
2022/04/14 10:24:32;;;;;;;9.48;4.20;;;;;;;;;;5039060;28;20116;-62
2022/04/14 10:26:59;;;;;;;8.85;3.63;;;;;;;;;;5037611;28;20060;-62
2022/04/14 10:29:26;;;;;;;12.90;5.13;;;;;;;;;;5036969;28;20029;-63
2022/04/14 10:31:54;;;;;;;6.30;3.65;;;;;;;;;;5035690;28;20424;-63
2022/04/14 10:34:20;;;;;;;7.82;3.67;;;;;;;;;;5039140;28;20028;-63
2022/04/14 10:36:47;;;;;;;8.75;4.00;;;;;;;;;;5040583;28;20502;-69
2022/04/14 10:39:14;;;;;;;6.15;3.92;;;;;;;;;;5048845;28;20377;-63
2022/04/14 10:41:42;;;;;;;10.88;4.22;;;;;;;;;;5050136;28;20021;-64
2022/04/14 10:44:09;;;;;;;7.93;3.47;;;;;;;;;;5045926;28;20385;-63
2022/04/14 10:46:46;;;;;;;7.00;3.85;;;;;;;;;;5037185;28;20435;-67
2022/04/14 10:49:15;;;;;;;9.57;3.78;;;;;;;;;;5044040;28;20033;-64
2022/04/14 10:51:43;;;;;;;6.43;3.72;;;;;;;;;;5050720;28;20040;-70
2022/04/14 10:54:10;;;;;;;6.00;3.90;;;;;;;;;;5050338;28;20354;-65
2022/04/14 10:56:42;;;;;;;6.28;3.92;;;;;;;;;;5040395;28;20078;-64
2022/04/14 10:59:11;;;;;;;7.40;3.90;;;;;;;;;;5038307;28;20041;-64
2022/04/14 11:01:50;;;;;;;6.95;4.00;;;;;;;;;;5039187;28;20123;-64
2022/04/14 11:04:26;;;;;;;7.88;4.15;;;;;;;;;;5044368;28;20033;-63
2022/04/14 11:06:52;;;;;;;7.85;4.28;;;;;;;;;;5042011;28;20098;-68
2022/04/14 11:09:37;;;;;;;8.18;4.57;;;;;;;;;;5030331;28;20037;-65
2022/04/14 11:12:03;;;;;;;7.57;4.60;;;;;;;;;;5030083;28;20124;-64
2022/04/14 11:14:34;;;;;;;8.35;4.13;;;;;;;;;;5029128;28;20087;-64
2022/04/14 11:17:00;;;;;;;6.68;3.75;;;;;;;;;;5030284;28;20390;-63
2022/04/14 11:19:27;;;;;;;10.32;4.07;;;;;;;;;;5030125;28;20109;-64
2022/04/14 11:22:02;;;;;;;8.25;4.65;;;;;;;;;;5033745;28;20029;-64
2022/04/14 11:24:37;;;;;;;6.88;4.20;;;;;;;;;;5033634;28;20037;-63
2022/04/14 11:27:15;;;;;;;7.40;4.35;;;;;;;;;;5033941;28;20072;-64
2022/04/14 11:30:03;;;;;;;8.18;3.90;;;;;;;;;;5033790;28;20021;-63
2022/04/14 11:32:36;;;;;;;10.02;4.63;;;;;;;;;;5033887;28;20055;-64
2022/04/14 11:35:13;;;;;;;6.28;3.67;;;;;;;;;;5033656;28;20076;-63
2022/04/14 11:37:44;;;;;;;7.72;3.97;;;;;;;;;;5033587;28;20035;-66
2022/04/14 11:40:11;;;;;;;6.70;3.35;;;;;;;;;;5032854;28;20044;-66
2022/04/14 11:42:37;;;;;;;6.10;3.60;;;;;;;;;;5033581;28;20048;-63
2022/04/14 11:45:03;;;;;;;10.77;4.07;;;;;;;;;;5033791;28;20030;-64
2022/04/14 11:47:29;;;;;;;6.75;3.72;;;;;;;;;;5033504;28;20097;-65
2022/04/14 11:49:55;;;;;;;5.55;3.10;;;;;;;;;;5033915;28;20091;-63
2022/04/14 11:52:22;;;;;;;5.97;3.22;;;;;;;;;;5033736;28;20423;-64
2022/04/14 11:54:49;;;;;;;7.82;4.53;;;;;;;;;;5033242;28;20021;-66
2022/04/14 11:57:19;;;;;;;7.07;3.70;;;;;;;;;;5033081;28;20099;-64
2022/04/14 11:59:47;;;;;;;7.75;3.47;;;;;;;;;;5033498;28;20052;-63
2022/04/14 12:02:20;;;;;;;8.13;3.55;;;;;;;;;;5033278;28;20025;-64
2022/04/14 12:04:46;;;;;;;8.32;3.92;;;;;;;;;;5033451;28;20048;-64
2022/04/14 12:07:13;;;;;;;5.78;3.90;;;;;;;;;;5033085;28;20108;-64
2022/04/14 12:09:40;;;;;;;7.78;3.70;;;;;;;;;;5033160;28;20055;-64
2022/04/14 12:12:16;;;;;;;7.63;3.80;;;;;;;;;;5032792;28;20066;-61
2022/04/14 12:14:45;;;;;;;5.47;3.25;;;;;;;;;;5033245;28;20053;-68
2022/04/14 12:17:12;;;;;;;7.05;3.90;;;;;;;;;;5032934;28;20017;-68
2022/04/14 12:19:41;;;;;;;7.55;3.92;;;;;;;;;;5032397;28;20038;-65
2022/04/14 12:22:07;;;;;;;7.53;3.70;;;;;;;;;;5032568;28;20144;-62
2022/04/14 12:24:34;;;;;;;6.78;3.80;;;;;;;;;;5031858;28;20406;-63
2022/04/14 12:27:00;;;;;;;7.68;3.67;;;;;;;;;;5032591;28;20037;-64
2022/04/14 12:29:27;;;;;;;6.30;3.70;;;;;;;;;;5032816;28;20370;-64
2022/04/14 12:31:56;;;;;;;8.07;3.83;;;;;;;;;;5031897;28;20391;-64
2022/04/14 12:34:22;;;;;;;5.90;3.47;;;;;;;;;;5032798;28;20486;-64
2022/04/14 12:36:49;;;;;;;6.20;3.42;;;;;;;;;;5032742;28;20025;-63
2022/04/14 12:39:20;;;;;;;7.40;3.38;;;;;;;;;;5032545;28;20599;-66
2022/04/14 12:41:46;;;;;;;7.85;4.15;;;;;;;;;;5031943;28;20025;-67
2022/04/14 12:44:20;;;;;;;8.85;3.88;;;;;;;;;;5032289;28;20017;-62
2022/04/14 12:46:50;;;;;;;7.63;3.92;;;;;;;;;;5032565;28;20025;-64
2022/04/14 12:49:22;;;;;;;5.85;4.13;;;;;;;;;;5032345;28;20204;-63
2022/04/14 12:51:58;;;;;;;7.35;4.00;;;;;;;;;;5032128;28;20033;-64
2022/04/14 12:54:25;;;;;;;7.60;4.47;;;;;;;;;;5031841;28;20036;-63
2022/04/14 12:57:10;;;;;;;6.45;4.22;;;;;;;;;;5031494;28;20053;-63
2022/04/14 12:59:37;;;;;;;10.73;4.20;;;;;;;;;;5031927;28;20083;-64
2022/04/14 13:02:03;;;;;;;6.57;3.60;;;;;;;;;;5032379;28;20529;-64
2022/04/14 13:04:39;;;;;;;7.93;3.50;;;;;;;;;;5031633;28;20021;-65
2022/04/14 13:07:06;;;;;;;6.47;3.88;;;;;;;;;;5031673;28;20025;-64
2022/04/14 13:09:33;;;;;;;5.93;3.38;;;;;;;;;;5031742;28;20026;-65
2022/04/14 13:12:00;;;;;;;8.68;4.07;;;;;;;;;;5031632;28;20029;-63
2022/04/14 13:14:26;;;;;;;7.03;4.00;;;;;;;;;;5031955;28;20537;-64
2022/04/14 13:16:54;;;;;;;6.55;3.63;;;;;;;;;;5031707;28;20029;-66
2022/04/14 13:19:20;;;;;;;7.57;4.35;;;;;;;;;;5031190;28;20037;-64
2022/04/14 13:21:47;;;;;;;8.50;5.57;;;;;;;;;;5031704;28;20083;-68
2022/04/14 13:24:13;;;;;;;7.90;5.30;;;;;;;;;;5031369;28;20033;-70
2022/04/14 13:26:39;;;;;;;7.43;4.10;;;;;;;;;;5031912;28;20108;-68
2022/04/14 13:29:07;;;;;;;16.08;4.80;;;;;;;;;;5031359;28;20033;-68
2022/04/14 13:31:33;;;;;;;7.20;3.95;;;;;;;;;;5031545;28;20358;-68
2022/04/14 13:33:59;;;;;;;7.20;3.97;;;;;;;;;;5031751;28;20108;-68
2022/04/14 13:36:25;;;;;;;7.90;3.88;;;;;;;;;;5041353;28;20033;-69
2022/04/14 13:38:51;;;;;;;5.97;3.70;;;;;;;;;;5031195;28;20183;-69
2022/04/14 13:41:18;;;;;;;7.35;4.00;;;;;;;;;;5031535;28;20033;-69
2022/04/14 13:43:44;;;;;;;8.02;3.67;;;;;;;;;;5031349;28;20063;-69
2022/04/14 13:46:10;;;;;;;6.95;4.35;;;;;;;;;;5031307;28;20076;-69
2022/04/14 13:48:36;;;;;;;9.05;4.65;;;;;;;;;;5031389;28;20029;-71
2022/04/14 13:51:03;;;;;;;7.25;3.95;;;;;;;;;;5031043;28;20033;-70
2022/04/14 13:53:29;;;;;;;6.63;3.90;;;;;;;;;;5031197;28;20140;-70
2022/04/14 13:55:56;;;;;;;9.20;4.10;;;;;;;;;;5031154;28;20048;-69
2022/04/14 13:58:22;;;;;;;6.50;3.75;;;;;;;;;;5030852;28;20436;-69
2022/04/14 14:00:51;;;;;;;7.60;3.90;;;;;;;;;;5030747;28;20034;-68
2022/04/14 14:03:17;;;;;;;6.38;3.72;;;;;;;;;;5031079;28;20389;-69
2022/04/14 14:05:44;;;;;;;5.88;3.85;;;;;;;;;;5030542;28;20022;-70
2022/04/14 14:08:10;;;;;;;6.38;4.22;;;;;;;;;;5030405;28;20060;-69
2022/04/14 14:10:37;;;;;;;7.68;4.38;;;;;;;;;;5030501;28;20767;-67
2022/04/14 14:13:03;;;;;;;7.55;3.92;;;;;;;;;;5030953;28;20485;-70
2022/04/14 14:15:30;;;;;;;8.98;4.22;;;;;;;;;;5031113;28;20079;-69
2022/04/14 14:17:56;;;;;;;6.82;4.00;;;;;;;;;;5030963;28;20039;-69
2022/04/14 14:20:22;;;;;;;5.90;3.83;;;;;;;;;;5030968;28;20556;-69
2022/04/14 14:22:49;;;;;;;9.60;4.22;;;;;;;;;;5029694;28;20381;-69
2022/04/14 14:25:15;;;;;;;7.47;4.13;;;;;;;;;;5029535;28;20539;-68
2022/04/14 14:27:41;;;;;;;8.95;3.45;;;;;;;;;;5029884;28;20485;-66
2022/04/14 14:30:08;;;;;;;5.28;3.72;;;;;;;;;;5030305;28;20029;-67
2022/04/14 14:32:35;;;;;;;7.20;3.97;;;;;;;;;;5030408;28;20018;-67
2022/04/14 14:35:01;;;;;;;5.72;3.67;;;;;;;;;;5030631;28;20033;-67